createdAt,value
2019-05-20T00:00:34.787Z,15.54
2019-05-20T00:01:44.913Z,15.57
2019-05-20T00:02:55.054Z,15.54
2019-05-20T00:04:05.194Z,15.55
2019-05-20T00:05:15.348Z,15.54
2019-05-20T00:06:25.513Z,15.51
2019-05-20T00:07:35.647Z,15.45
2019-05-20T00:08:45.778Z,15.46
2019-05-20T00:09:55.939Z,15.48
2019-05-20T00:11:06.361Z,15.4
2019-05-20T00:12:16.567Z,15.4
2019-05-20T00:13:26.693Z,15.38
2019-05-20T00:14:36.898Z,15.38
2019-05-20T00:15:46.795Z,15.27
2019-05-20T00:16:56.921Z,15.18
2019-05-20T00:18:06.689Z,15.25
2019-05-20T00:19:16.813Z,15.23
2019-05-20T00:20:26.944Z,15.14
2019-05-20T00:21:37.053Z,15.13
2019-05-20T00:22:47.180Z,15.13
2019-05-20T00:23:57.334Z,15.09
2019-05-20T00:25:07.455Z,15.06
2019-05-20T00:26:17.594Z,15.09
2019-05-20T00:27:27.723Z,15.13
2019-05-20T00:28:38.053Z,15.18
2019-05-20T00:29:48.201Z,15.05
2019-05-20T00:30:58.345Z,14.98
2019-05-20T00:32:08.457Z,15.02
2019-05-20T00:33:18.624Z,15
2019-05-20T00:34:39.754Z,14.96
2019-05-20T00:35:49.885Z,15
2019-05-20T00:37:00.241Z,14.96
2019-05-20T00:38:10.370Z,14.85
2019-05-20T00:39:21.217Z,14.9
2019-05-20T00:40:31.347Z,14.9
2019-05-20T00:41:41.472Z,14.96
2019-05-20T00:42:51.590Z,14.88
2019-05-20T00:44:01.739Z,14.81
2019-05-20T00:45:11.866Z,14.84
2019-05-20T00:46:21.980Z,14.81
2019-05-20T00:47:32.109Z,14.77
2019-05-20T00:48:42.228Z,14.77
2019-05-20T00:49:52.126Z,14.72
2019-05-20T00:51:02.255Z,14.72
2019-05-20T00:52:12.393Z,14.78
2019-05-20T00:53:22.514Z,14.78
2019-05-20T00:54:32.622Z,14.7
2019-05-20T00:55:42.745Z,14.72
2019-05-20T00:56:52.908Z,14.75
2019-05-20T00:58:03.032Z,14.78
2019-05-20T00:59:13.165Z,14.65
2019-05-20T01:00:23.299Z,14.67
2019-05-20T01:01:33.426Z,14.7
2019-05-20T01:02:58.446Z,14.69
2019-05-20T01:04:08.572Z,14.67
2019-05-20T01:05:18.700Z,14.63
2019-05-20T01:06:28.821Z,14.66
2019-05-20T01:07:38.936Z,14.74
2019-05-20T01:08:48.804Z,14.72
2019-05-20T01:09:58.918Z,14.63
2019-05-20T01:11:09.057Z,14.6
2019-05-20T01:12:19.213Z,14.65
2019-05-20T01:13:29.389Z,14.62
2019-05-20T01:14:39.501Z,14.66
2019-05-20T01:15:49.367Z,14.59
2019-05-20T01:16:59.539Z,14.6
2019-05-20T01:18:09.809Z,14.54
2019-05-20T01:19:19.937Z,14.5
2019-05-20T01:20:30.052Z,14.51
2019-05-20T01:21:40.175Z,14.48
2019-05-20T01:22:50.286Z,14.39
2019-05-20T01:24:00.431Z,14.36
2019-05-20T01:25:10.593Z,14.4
2019-05-20T01:26:20.695Z,14.4
2019-05-20T01:27:30.582Z,14.48
2019-05-20T01:28:40.692Z,14.5
2019-05-20T01:29:50.807Z,14.39
2019-05-20T01:31:00.929Z,14.43
2019-05-20T01:32:11.120Z,14.39
2019-05-20T01:33:21.233Z,14.43
2019-05-20T01:34:31.346Z,14.51
2019-05-20T01:35:41.444Z,14.52
2019-05-20T01:36:51.565Z,14.51
2019-05-20T01:38:01.392Z,14.65
2019-05-20T01:39:11.552Z,14.56
2019-05-20T01:40:21.667Z,14.5
2019-05-20T01:41:31.829Z,14.47
2019-05-20T01:42:41.988Z,14.43
2019-05-20T01:43:52.097Z,14.37
2019-05-20T01:45:02.216Z,14.39
2019-05-20T01:46:12.442Z,14.43
2019-05-20T01:47:22.340Z,14.26
2019-05-20T01:48:32.464Z,14.28
2019-05-20T01:49:42.578Z,14.14
2019-05-20T01:50:52.716Z,14.16
2019-05-20T01:52:02.827Z,14.14
2019-05-20T01:53:12.940Z,14.09
2019-05-20T01:54:23.075Z,14.18
2019-05-20T01:55:33.197Z,14.09
2019-05-20T01:56:43.336Z,14.18
2019-05-20T01:57:53.514Z,14.11
2019-05-20T01:59:03.650Z,14.1
2019-05-20T02:00:13.811Z,14.06
2019-05-20T02:01:23.957Z,14.11
2019-05-20T02:02:34.103Z,14.13
2019-05-20T02:03:44.222Z,14.1
2019-05-20T02:04:54.362Z,14.16
2019-05-20T02:06:04.533Z,14.14
2019-05-20T02:07:14.664Z,14.11
2019-05-20T02:08:24.856Z,14.16
2019-05-20T02:09:34.978Z,14.1
2019-05-20T02:10:45.147Z,14.1
2019-05-20T02:11:55.287Z,14.14
2019-05-20T02:13:05.397Z,14.13
2019-05-20T02:14:15.300Z,14.14
2019-05-20T02:15:25.542Z,14.06
2019-05-20T02:16:35.683Z,14.1
2019-05-20T02:17:45.804Z,14.13
2019-05-20T02:18:55.968Z,14.09
2019-05-20T02:20:06.300Z,14.13
2019-05-20T02:21:16.516Z,14.14
2019-05-20T02:22:26.617Z,14.07
2019-05-20T02:23:36.731Z,14.11
2019-05-20T02:24:46.893Z,14.06
2019-05-20T02:25:57.012Z,14.02
2019-05-20T02:27:07.135Z,14.02
2019-05-20T02:28:17.347Z,14
2019-05-20T02:29:27.500Z,13.99
2019-05-20T02:30:37.648Z,13.99
2019-05-20T02:31:47.788Z,14.07
2019-05-20T02:32:57.908Z,14.11
2019-05-20T02:34:08.042Z,14.1
2019-05-20T02:35:18.187Z,14.13
2019-05-20T02:36:28.060Z,14.14
2019-05-20T02:37:38.170Z,14.14
2019-05-20T02:38:48.299Z,14.19
2019-05-20T02:39:58.435Z,14.14
2019-05-20T02:41:08.552Z,14.13
2019-05-20T02:42:18.696Z,14.02
2019-05-20T02:43:28.880Z,14.07
2019-05-20T02:44:39.021Z,14.1
2019-05-20T02:45:49.134Z,14.02
2019-05-20T02:46:59.002Z,13.96
2019-05-20T02:48:09.130Z,13.95
2019-05-20T02:49:19.255Z,14.04
2019-05-20T02:50:29.387Z,13.95
2019-05-20T02:51:39.280Z,14
2019-05-20T02:52:49.407Z,14.04
2019-05-20T02:53:59.555Z,14.04
2019-05-20T02:55:09.731Z,14.02
2019-05-20T02:56:19.634Z,14.07
2019-05-20T02:57:29.755Z,13.92
2019-05-20T02:58:39.905Z,13.88
2019-05-20T02:59:50.027Z,13.81
2019-05-20T03:01:00.146Z,13.84
2019-05-20T03:02:10.275Z,13.81
2019-05-20T03:03:20.635Z,13.84
2019-05-20T03:04:30.801Z,13.81
2019-05-20T03:05:40.939Z,13.84
2019-05-20T03:06:51.057Z,13.84
2019-05-20T03:08:01.170Z,13.82
2019-05-20T03:09:14.719Z,13.81
2019-05-20T03:10:24.835Z,13.99
2019-05-20T03:11:34.984Z,13.82
2019-05-20T03:12:45.100Z,13.81
2019-05-20T03:13:55.231Z,13.81
2019-05-20T03:15:05.400Z,13.82
2019-05-20T03:16:18.184Z,13.82
2019-05-20T03:17:28.340Z,13.85
2019-05-20T03:18:38.464Z,13.85
2019-05-20T03:19:48.609Z,13.77
2019-05-20T03:20:58.738Z,13.81
2019-05-20T03:22:08.598Z,13.91
2019-05-20T03:23:18.729Z,13.84
2019-05-20T03:24:28.878Z,13.89
2019-05-20T03:25:38.997Z,13.91
2019-05-20T03:26:48.903Z,13.99
2019-05-20T03:27:59.117Z,13.88
2019-05-20T03:29:09.400Z,13.86
2019-05-20T03:30:19.602Z,13.89
2019-05-20T03:31:29.759Z,13.85
2019-05-20T03:32:40.044Z,13.86
2019-05-20T03:33:50.228Z,13.84
2019-05-20T03:35:05.187Z,13.82
2019-05-20T03:36:15.440Z,13.76
2019-05-20T03:37:25.562Z,13.66
2019-05-20T03:38:35.662Z,13.61
2019-05-20T03:39:45.785Z,13.56
2019-05-20T03:40:55.906Z,13.64
2019-05-20T03:42:06.053Z,13.66
2019-05-20T03:43:15.926Z,13.63
2019-05-20T03:44:26.034Z,13.64
2019-05-20T03:45:35.814Z,13.59
2019-05-20T03:46:45.946Z,13.61
2019-05-20T03:47:56.058Z,13.58
2019-05-20T03:49:06.212Z,13.63
2019-05-20T03:50:16.423Z,13.59
2019-05-20T03:51:26.584Z,13.69
2019-05-20T03:52:36.718Z,13.64
2019-05-20T03:53:46.498Z,13.7
2019-05-20T03:54:56.623Z,13.59
2019-05-20T03:56:06.537Z,13.63
2019-05-20T03:57:16.660Z,13.58
2019-05-20T03:58:27.018Z,13.59
2019-05-20T03:59:37.177Z,13.55
2019-05-20T04:00:47.544Z,13.56
2019-05-20T04:01:57.724Z,13.56
2019-05-20T04:03:07.890Z,13.56
2019-05-20T04:04:18.047Z,13.56
2019-05-20T04:05:30.512Z,13.56
2019-05-20T04:06:40.402Z,13.7
2019-05-20T04:07:50.627Z,13.66
2019-05-20T04:09:00.741Z,13.56
2019-05-20T04:10:10.861Z,13.64
2019-05-20T04:11:21.019Z,13.71
2019-05-20T04:12:31.157Z,13.76
2019-05-20T04:13:41.286Z,13.7
2019-05-20T04:14:51.395Z,13.73
2019-05-20T04:16:01.526Z,13.77
2019-05-20T04:17:11.673Z,13.73
2019-05-20T04:18:21.837Z,13.77
2019-05-20T04:19:31.700Z,13.73
2019-05-20T04:20:41.467Z,13.77
2019-05-20T04:21:51.643Z,13.81
2019-05-20T04:23:01.796Z,13.73
2019-05-20T04:24:12.103Z,13.76
2019-05-20T04:25:22.319Z,13.73
2019-05-20T04:26:32.461Z,13.81
2019-05-20T04:27:42.365Z,13.85
2019-05-20T04:28:52.477Z,13.79
2019-05-20T04:30:02.597Z,13.84
2019-05-20T04:31:12.740Z,13.82
2019-05-20T04:32:22.852Z,13.88
2019-05-20T04:33:32.980Z,13.81
2019-05-20T04:34:43.112Z,13.71
2019-05-20T04:35:54.865Z,13.74
2019-05-20T04:37:05.007Z,13.82
2019-05-20T04:38:15.139Z,13.79
2019-05-20T04:39:25.259Z,13.81
2019-05-20T04:40:35.402Z,13.84
2019-05-20T04:41:45.178Z,13.86
2019-05-20T04:42:55.289Z,13.79
2019-05-20T04:44:05.426Z,13.84
2019-05-20T04:45:15.545Z,13.84
2019-05-20T04:46:25.680Z,13.94
2019-05-20T04:47:35.824Z,13.92
2019-05-20T04:48:45.688Z,13.94
2019-05-20T04:49:55.808Z,14
2019-05-20T04:51:05.933Z,13.99
2019-05-20T04:52:16.103Z,14.02
2019-05-20T04:53:27.260Z,14
2019-05-20T04:54:37.383Z,14.02
2019-05-20T04:55:47.510Z,13.99
2019-05-20T04:56:57.638Z,14.04
2019-05-20T04:58:07.761Z,14.06
2019-05-20T04:59:17.888Z,14.06
2019-05-20T05:00:28.031Z,14.09
2019-05-20T05:01:38.164Z,14.13
2019-05-20T05:02:48.916Z,14.11
2019-05-20T05:03:59.058Z,14.1
2019-05-20T05:05:09.192Z,14.09
2019-05-20T05:06:19.329Z,14.16
2019-05-20T05:07:29.451Z,14.19
2019-05-20T05:08:39.643Z,14.31
2019-05-20T05:09:49.759Z,14.31
2019-05-20T05:10:59.908Z,14.31
2019-05-20T05:12:09.808Z,14.43
2019-05-20T05:13:19.679Z,14.54
2019-05-20T05:14:29.821Z,14.47
2019-05-20T05:15:39.952Z,14.51
2019-05-20T05:16:50.068Z,14.67
2019-05-20T05:18:00.184Z,14.62
2019-05-20T05:19:10.064Z,14.69
2019-05-20T05:20:23.186Z,14.74
2019-05-20T05:21:33.306Z,14.78
2019-05-20T05:22:43.445Z,14.8
2019-05-20T05:24:03.919Z,14.81
2019-05-20T05:25:14.061Z,14.88
2019-05-20T05:26:24.213Z,14.95
2019-05-20T05:27:34.340Z,15.02
2019-05-20T05:28:44.460Z,15.05
2019-05-20T05:29:54.580Z,15.09
2019-05-20T05:31:04.757Z,15.23
2019-05-20T05:32:14.922Z,15.14
2019-05-20T05:33:24.791Z,15.14
2019-05-20T05:34:34.918Z,15.25
2019-05-20T05:35:57.474Z,15.2
2019-05-20T05:37:07.622Z,15.24
2019-05-20T05:38:17.906Z,15.23
2019-05-20T05:39:28.034Z,15.21
2019-05-20T05:40:38.159Z,15.39
2019-05-20T05:41:48.310Z,15.25
2019-05-20T05:42:58.445Z,15.32
2019-05-20T05:44:08.569Z,15.43
2019-05-20T05:45:18.720Z,15.48
2019-05-20T05:46:28.840Z,15.51
2019-05-20T05:47:38.983Z,15.55
2019-05-20T05:48:49.106Z,15.61
2019-05-20T05:49:59.225Z,15.68
2019-05-20T05:51:09.103Z,15.7
2019-05-20T05:52:19.246Z,15.73
2019-05-20T05:53:30.832Z,15.75
2019-05-20T05:54:40.956Z,15.8
2019-05-20T05:55:51.081Z,15.87
2019-05-20T05:57:01.200Z,15.87
2019-05-20T05:58:13.744Z,15.92
2019-05-20T05:59:23.902Z,15.96
2019-05-20T06:00:34.030Z,15.92
2019-05-20T06:01:44.193Z,16.1
2019-05-20T06:02:54.315Z,16.14
2019-05-20T06:04:04.439Z,16.14
2019-05-20T06:05:14.557Z,16.2
2019-05-20T06:06:24.701Z,16.31
2019-05-20T06:07:34.825Z,16.28
2019-05-20T06:08:44.957Z,16.29
2019-05-20T06:09:55.079Z,16.42
2019-05-20T06:11:05.203Z,16.36
2019-05-20T06:12:15.312Z,16.39
2019-05-20T06:13:25.448Z,16.38
2019-05-20T06:14:35.587Z,16.47
2019-05-20T06:15:45.767Z,16.46
2019-05-20T06:16:55.560Z,16.43
2019-05-20T06:18:05.708Z,16.42
2019-05-20T06:19:15.954Z,16.47
2019-05-20T06:20:26.117Z,16.49
2019-05-20T06:21:36.280Z,16.49
2019-05-20T06:22:46.469Z,16.49
2019-05-20T06:23:56.647Z,16.5
2019-05-20T06:25:07.066Z,16.66
2019-05-20T06:26:17.396Z,16.59
2019-05-20T06:27:27.516Z,16.65
2019-05-20T06:28:37.873Z,16.74
2019-05-20T06:29:47.997Z,16.72
2019-05-20T06:30:58.109Z,16.71
2019-05-20T06:32:08.247Z,16.71
2019-05-20T06:33:18.467Z,16.86
2019-05-20T06:34:28.630Z,16.82
2019-05-20T06:35:38.774Z,16.91
2019-05-20T06:36:48.893Z,16.9
2019-05-20T06:37:59.241Z,16.96
2019-05-20T06:39:09.374Z,16.98
2019-05-20T06:40:19.499Z,16.93
2019-05-20T06:41:29.628Z,16.99
2019-05-20T06:42:39.775Z,17.01
2019-05-20T06:43:49.937Z,16.99
2019-05-20T06:45:02.372Z,17.04
2019-05-20T06:46:12.504Z,17.02
2019-05-20T06:47:22.721Z,17.05
2019-05-20T06:48:32.843Z,17.06
2019-05-20T06:49:42.985Z,16.98
2019-05-20T06:50:53.141Z,16.99
2019-05-20T06:52:03.253Z,17.02
2019-05-20T06:53:13.319Z,16.96
2019-05-20T06:54:23.473Z,17.06
2019-05-20T06:55:33.624Z,17.08
2019-05-20T06:56:43.857Z,17.08
2019-05-20T06:57:54.664Z,17.11
2019-05-20T06:59:04.839Z,17.16
2019-05-20T07:00:14.963Z,17.17
2019-05-20T07:01:25.087Z,17.35
2019-05-20T07:02:35.277Z,17.3
2019-05-20T07:03:45.399Z,17.4
2019-05-20T07:04:55.512Z,17.45
2019-05-20T07:06:05.629Z,17.47
2019-05-20T07:07:25.595Z,17.43
2019-05-20T07:08:35.751Z,17.5
2019-05-20T07:09:49.739Z,17.57
2019-05-20T07:10:59.874Z,17.58
2019-05-20T07:12:10.044Z,17.62
2019-05-20T07:13:21.051Z,17.67
2019-05-20T07:14:31.193Z,17.7
2019-05-20T07:15:41.397Z,17.75
2019-05-20T07:16:51.645Z,17.76
2019-05-20T07:18:01.768Z,17.83
2019-05-20T07:19:11.893Z,17.87
2019-05-20T07:20:22.123Z,17.91
2019-05-20T07:21:32.332Z,18
2019-05-20T07:22:59.859Z,17.97
2019-05-20T07:24:10.014Z,18
2019-05-20T07:25:20.018Z,18.1
2019-05-20T07:26:30.231Z,18.15
2019-05-20T07:27:40.395Z,18.26
2019-05-20T07:28:50.559Z,18.4
2019-05-20T07:30:00.713Z,18.35
2019-05-20T07:31:11.847Z,18.37
2019-05-20T07:32:21.656Z,18.44
2019-05-20T07:33:31.880Z,18.42
2019-05-20T07:34:42.054Z,18.49
2019-05-20T07:35:52.231Z,18.62
2019-05-20T07:37:08.395Z,18.6
2019-05-20T07:38:18.278Z,18.5
2019-05-20T07:39:28.469Z,18.52
2019-05-20T07:40:38.728Z,18.44
2019-05-20T07:41:48.890Z,18.4
2019-05-20T07:42:59.005Z,18.41
2019-05-20T07:44:08.945Z,18.38
2019-05-20T07:45:19.104Z,18.42
2019-05-20T07:46:29.280Z,18.49
2019-05-20T07:47:39.421Z,18.42
2019-05-20T07:48:49.653Z,18.49
2019-05-20T07:50:00.362Z,18.57
2019-05-20T07:51:10.484Z,18.57
2019-05-20T07:52:20.626Z,18.59
2019-05-20T07:53:30.812Z,18.6
2019-05-20T07:54:41.028Z,18.73
2019-05-20T07:55:51.149Z,18.67
2019-05-20T07:57:01.433Z,18.8
2019-05-20T07:58:11.718Z,18.8
2019-05-20T07:59:21.887Z,18.82
2019-05-20T08:00:31.843Z,18.86
2019-05-20T08:01:44.257Z,18.97
2019-05-20T08:02:57.825Z,19.03
2019-05-20T08:04:07.958Z,19.08
2019-05-20T08:05:18.517Z,19.18
2019-05-20T08:06:28.521Z,19.19
2019-05-20T08:07:55.536Z,19.34
2019-05-20T08:09:05.824Z,19.34
2019-05-20T08:10:16.048Z,19.3
2019-05-20T08:11:26.198Z,19.35
2019-05-20T08:12:36.321Z,19.43
2019-05-20T08:13:46.447Z,19.52
2019-05-20T08:14:56.584Z,19.63
2019-05-20T08:16:06.841Z,19.68
2019-05-20T08:17:17.001Z,19.82
2019-05-20T08:18:27.156Z,19.95
2019-05-20T08:19:37.306Z,19.89
2019-05-20T08:20:47.460Z,20
2019-05-20T08:21:57.619Z,20.04
2019-05-20T08:23:07.746Z,20.16
2019-05-20T08:24:19.032Z,20.21
2019-05-20T08:25:29.596Z,20.23
2019-05-20T08:26:43.385Z,20.31
2019-05-20T08:27:53.716Z,20.38
2019-05-20T08:29:03.888Z,20.42
2019-05-20T08:30:16.546Z,20.45
2019-05-20T08:31:26.728Z,20.39
2019-05-20T08:32:36.872Z,20.46
2019-05-20T08:33:46.989Z,20.46
2019-05-20T08:34:58.116Z,20.54
2019-05-20T08:36:08.243Z,20.63
2019-05-20T08:37:18.491Z,20.61
2019-05-20T08:38:28.888Z,20.71
2019-05-20T08:39:39.102Z,20.75
2019-05-20T08:40:53.327Z,20.97
2019-05-20T08:42:03.463Z,21.23
2019-05-20T08:43:13.645Z,21.75
2019-05-20T08:44:23.910Z,22.13
2019-05-20T08:45:34.062Z,22.38
2019-05-20T08:46:45.300Z,22.63
2019-05-20T08:47:55.483Z,23.02
2019-05-20T08:49:10.327Z,23.36
2019-05-20T08:50:21.487Z,23.69
2019-05-20T08:51:31.656Z,24.06
2019-05-20T08:52:41.855Z,24.5
2019-05-20T08:53:52.065Z,24.9
2019-05-20T08:55:02.667Z,25.15
2019-05-20T08:56:12.947Z,25.42
2019-05-20T08:57:23.203Z,25.68
2019-05-20T08:58:33.392Z,25.94
2019-05-20T08:59:43.531Z,26.16
2019-05-20T09:00:53.682Z,26.33
2019-05-20T09:02:03.923Z,26.58
2019-05-20T09:03:13.804Z,26.75
2019-05-20T09:04:23.963Z,26.8
2019-05-20T09:05:34.126Z,26.83
2019-05-20T09:06:44.348Z,26.86
2019-05-20T09:08:07.601Z,26.99
2019-05-20T09:09:17.415Z,26.96
2019-05-20T09:10:27.691Z,26.93
2019-05-20T09:11:37.850Z,26.56
2019-05-20T09:12:48.002Z,26.37
2019-05-20T09:13:58.157Z,26.43
2019-05-20T09:15:09.292Z,26.64
2019-05-20T09:16:21.873Z,26.78
2019-05-20T09:17:32.025Z,26.98
2019-05-20T09:18:49.498Z,27.11
2019-05-20T09:20:02.018Z,27.26
2019-05-20T09:21:14.768Z,27.49
2019-05-20T09:22:25.214Z,27.68
2019-05-20T09:23:35.444Z,28
2019-05-20T09:24:46.141Z,28.23
2019-05-20T09:25:57.161Z,28.44
2019-05-20T09:27:07.317Z,28.56
2019-05-20T09:28:17.525Z,28.53
2019-05-20T09:29:30.530Z,28.77
2019-05-20T09:30:43.858Z,28.72
2019-05-20T09:31:54.030Z,28.73
2019-05-20T09:33:07.342Z,28.81
2019-05-20T09:34:17.408Z,29.02
2019-05-20T09:35:27.562Z,29.18
2019-05-20T09:36:39.580Z,29.25
2019-05-20T09:37:49.749Z,29.31
2019-05-20T09:38:59.915Z,29.32
2019-05-20T09:40:10.092Z,29.43
2019-05-20T09:41:20.867Z,29.55
2019-05-20T09:42:31.045Z,29.66
2019-05-20T09:43:41.205Z,29.8
2019-05-20T09:44:51.551Z,29.84
2019-05-20T09:46:12.074Z,29.94
2019-05-20T09:47:22.244Z,30.07
2019-05-20T09:48:32.780Z,30.07
2019-05-20T09:49:42.910Z,30.04
2019-05-20T09:50:53.049Z,30.12
2019-05-20T09:52:11.635Z,30.26
2019-05-20T09:53:21.557Z,30.57
2019-05-20T09:54:31.922Z,30.66
2019-05-20T09:55:42.313Z,30.81
2019-05-20T09:56:52.538Z,30.7
2019-05-20T09:58:02.751Z,30.64
2019-05-20T09:59:16.142Z,30.51
2019-05-20T10:00:26.627Z,30.63
2019-05-20T10:01:39.744Z,30.61
2019-05-20T10:02:53.475Z,30.64
2019-05-20T10:05:31.202Z,30.57
2019-05-20T10:06:44.965Z,30.56
2019-05-20T10:07:55.149Z,30.39
2019-05-20T10:09:05.304Z,30.42
2019-05-20T10:10:15.455Z,30.17
2019-05-20T10:11:25.592Z,29.76
2019-05-20T10:12:50.691Z,29.48
2019-05-20T10:14:00.849Z,29.45
2019-05-20T10:15:10.746Z,29.58
2019-05-20T10:16:20.913Z,29.65
2019-05-20T10:17:31.097Z,29.92
2019-05-20T10:18:43.677Z,29.77
2019-05-20T10:19:53.865Z,29.85
2019-05-20T10:21:04.127Z,29.88
2019-05-20T10:23:31.714Z,29.76
2019-05-20T10:24:41.882Z,29.99
2019-05-20T10:25:53.801Z,30
2019-05-20T10:27:17.087Z,30.07
2019-05-20T10:28:27.246Z,30.2
2019-05-20T10:30:53.614Z,30.48
2019-05-20T10:33:18.969Z,30.37
2019-05-20T10:37:01.931Z,30.49
2019-05-20T10:38:12.191Z,30.33
2019-05-20T10:39:22.332Z,30.47
2019-05-20T10:40:32.560Z,30.35
2019-05-20T10:41:42.745Z,30.35
2019-05-20T10:42:52.976Z,30.27
2019-05-20T10:44:03.146Z,30.16
2019-05-20T10:45:13.388Z,30.17
2019-05-20T10:46:23.659Z,29.85
2019-05-20T10:47:35.070Z,29.69
2019-05-20T10:48:45.244Z,29.73
2019-05-20T10:49:55.154Z,29.81
2019-05-20T10:51:05.325Z,29.89
2019-05-20T10:52:18.313Z,29.66
2019-05-20T10:53:30.895Z,29.7
2019-05-20T10:54:41.092Z,29.81
2019-05-20T10:55:51.245Z,29.72
2019-05-20T10:57:04.856Z,29.43
2019-05-20T10:58:14.995Z,29.29
2019-05-20T10:59:25.197Z,28.92
2019-05-20T11:00:35.190Z,28.54
2019-05-20T11:01:45.350Z,28.29
2019-05-20T11:02:55.538Z,28.22
2019-05-20T11:04:05.694Z,28.14
2019-05-20T11:05:15.927Z,28.26
2019-05-20T11:06:26.103Z,28.27
2019-05-20T11:07:36.000Z,28.46
2019-05-20T11:08:46.243Z,28.38
2019-05-20T11:09:56.403Z,28.24
2019-05-20T11:11:06.664Z,28
2019-05-20T11:12:21.948Z,27.82
2019-05-20T11:13:32.146Z,27.43
2019-05-20T11:14:42.317Z,27.24
2019-05-20T11:15:52.457Z,27.1
2019-05-20T11:17:02.693Z,26.99
2019-05-20T11:18:12.888Z,26.99
2019-05-20T11:19:23.277Z,27.07
2019-05-20T11:20:33.444Z,27.11
2019-05-20T11:21:43.601Z,27.07
2019-05-20T11:22:53.798Z,26.82
2019-05-20T11:24:06.659Z,26.64
2019-05-20T11:25:16.918Z,26.55
2019-05-20T11:26:27.144Z,26.49
2019-05-20T11:27:37.300Z,26.73
2019-05-20T11:28:47.196Z,26.71
2019-05-20T11:29:57.340Z,26.51
2019-05-20T11:31:07.495Z,26.29
2019-05-20T11:32:17.637Z,26.09
2019-05-20T11:33:27.783Z,25.96
2019-05-20T11:34:38.211Z,25.74
2019-05-20T11:35:48.530Z,25.66
2019-05-20T11:36:58.904Z,25.61
2019-05-20T11:38:09.280Z,25.62
2019-05-20T11:39:36.676Z,25.64
2019-05-20T11:40:46.814Z,25.5
2019-05-20T11:41:59.216Z,25.28
2019-05-20T11:43:09.181Z,25.27
2019-05-20T11:44:19.321Z,25.15
2019-05-20T11:45:29.488Z,25.06
2019-05-20T11:46:39.720Z,25.05
2019-05-20T11:47:49.858Z,25.02
2019-05-20T11:49:00.137Z,24.85
2019-05-20T11:50:10.278Z,24.78
2019-05-20T11:51:20.452Z,24.6
2019-05-20T11:52:30.607Z,24.51
2019-05-20T11:53:40.259Z,24.47
2019-05-20T11:54:50.482Z,24.34
2019-05-20T11:56:00.655Z,24.4
2019-05-20T11:57:10.778Z,24.32
2019-05-20T11:58:21.547Z,24.35
2019-05-20T11:59:31.700Z,24.57
2019-05-20T12:00:41.894Z,24.62
2019-05-20T12:01:52.065Z,24.85
2019-05-20T12:03:02.015Z,25.05
2019-05-20T12:04:12.165Z,25.18
2019-05-20T12:05:22.480Z,25.12
2019-05-20T12:06:32.650Z,25.31
2019-05-20T12:07:42.557Z,25.19
2019-05-20T12:08:52.697Z,25.21
2019-05-20T12:10:02.828Z,25.06
2019-05-20T12:11:12.983Z,24.85
2019-05-20T12:12:23.156Z,24.85
2019-05-20T12:13:33.287Z,24.85
2019-05-20T12:14:43.416Z,25.05
2019-05-20T12:15:53.571Z,25.07
2019-05-20T12:17:03.719Z,25.21
2019-05-20T12:18:13.969Z,25.28
2019-05-20T12:19:24.093Z,25.31
2019-05-20T12:20:34.271Z,25.34
2019-05-20T12:21:44.179Z,25.64
2019-05-20T12:22:54.351Z,25.64
2019-05-20T12:24:04.550Z,25.73
2019-05-20T12:25:14.836Z,25.78
2019-05-20T12:26:27.221Z,25.94
2019-05-20T12:27:37.490Z,26.09
2019-05-20T12:28:47.648Z,26.07
2019-05-20T12:29:57.794Z,26.24
2019-05-20T12:31:07.918Z,26.25
2019-05-20T12:32:18.096Z,26.33
2019-05-20T12:33:28.256Z,26.39
2019-05-20T12:34:38.424Z,26.36
2019-05-20T12:35:48.593Z,26.45
2019-05-20T12:36:58.820Z,26.41
2019-05-20T12:38:08.734Z,26.46
2019-05-20T12:39:18.973Z,26.45
2019-05-20T12:41:45.019Z,26.3
2019-05-20T12:43:00.955Z,26.39
2019-05-20T12:44:18.655Z,26.18
2019-05-20T12:45:33.626Z,26.18
2019-05-20T12:46:43.812Z,26.02
2019-05-20T12:47:54.005Z,26.02
2019-05-20T12:49:04.586Z,26
2019-05-20T12:50:15.464Z,25.88
2019-05-20T12:51:25.603Z,25.74
2019-05-20T12:52:35.752Z,25.64
2019-05-20T12:53:45.917Z,25.54
2019-05-20T12:55:12.617Z,25.4
2019-05-20T12:56:24.785Z,25.18
2019-05-20T12:57:34.929Z,25.12
2019-05-20T12:58:45.077Z,24.94
2019-05-20T12:59:55.230Z,24.87
2019-05-20T13:01:05.401Z,24.69
2019-05-20T13:02:19.623Z,24.58
2019-05-20T13:03:29.770Z,24.47
2019-05-20T13:04:39.923Z,24.35
2019-05-20T13:05:50.076Z,24.19
2019-05-20T13:07:00.272Z,24.13
2019-05-20T13:08:10.850Z,24.02
2019-05-20T13:09:21.069Z,23.9
2019-05-20T13:10:36.424Z,23.8
2019-05-20T13:11:46.565Z,23.63
2019-05-20T13:12:56.776Z,23.53
2019-05-20T13:14:06.968Z,23.45
2019-05-20T13:15:17.146Z,23.32
2019-05-20T13:16:27.323Z,23.2
2019-05-20T13:17:42.807Z,23.05
2019-05-20T13:19:01.122Z,22.9
2019-05-20T13:20:11.273Z,22.67
2019-05-20T13:21:21.435Z,22.57
2019-05-20T13:22:31.571Z,22.42
2019-05-20T13:23:41.707Z,22.28
2019-05-20T13:24:56.487Z,22.2
2019-05-20T13:26:06.644Z,22.13
2019-05-20T13:27:16.798Z,21.98
2019-05-20T13:28:26.934Z,21.96
2019-05-20T13:29:37.186Z,21.87
2019-05-20T13:30:47.312Z,21.72
2019-05-20T13:31:57.464Z,21.73
2019-05-20T13:33:07.622Z,21.86
2019-05-20T13:34:20.892Z,21.88
2019-05-20T13:35:31.057Z,21.87
2019-05-20T13:36:41.189Z,21.87
2019-05-20T13:37:51.335Z,21.87
2019-05-20T13:39:01.229Z,21.9
2019-05-20T13:40:11.398Z,21.84
2019-05-20T13:41:21.559Z,21.9
2019-05-20T13:42:31.704Z,21.93
2019-05-20T13:43:41.899Z,21.87
2019-05-20T13:44:52.111Z,21.94
2019-05-20T13:46:02.303Z,21.84
2019-05-20T13:47:12.213Z,21.9
2019-05-20T13:48:22.372Z,21.73
2019-05-20T13:49:32.584Z,21.73
2019-05-20T13:50:42.731Z,21.68
2019-05-20T13:51:52.897Z,21.61
2019-05-20T13:53:03.044Z,21.6
2019-05-20T13:54:13.814Z,21.65
2019-05-20T13:55:24.039Z,21.56
2019-05-20T13:56:34.175Z,21.58
2019-05-20T13:57:44.350Z,21.57
2019-05-20T13:58:54.503Z,21.66
2019-05-20T14:00:04.666Z,21.69
2019-05-20T14:01:14.855Z,21.78
2019-05-20T14:02:25.056Z,21.71
2019-05-20T14:03:34.848Z,21.87
2019-05-20T14:04:45.078Z,21.86
2019-05-20T14:05:55.240Z,21.91
2019-05-20T14:07:05.381Z,21.93
2019-05-20T14:08:15.656Z,21.9
2019-05-20T14:09:25.960Z,21.83
2019-05-20T14:10:36.122Z,21.75
2019-05-20T14:11:46.441Z,21.71
2019-05-20T14:12:56.576Z,21.71
2019-05-20T14:14:06.728Z,21.57
2019-05-20T14:15:19.632Z,21.56
2019-05-20T14:16:29.850Z,21.6
2019-05-20T14:17:40.048Z,21.56
2019-05-20T14:18:50.278Z,21.5
2019-05-20T14:20:00.176Z,21.54
2019-05-20T14:21:10.894Z,21.54
2019-05-20T14:22:21.059Z,21.58
2019-05-20T14:23:31.212Z,21.56
2019-05-20T14:24:41.464Z,21.6
2019-05-20T14:25:51.663Z,21.58
2019-05-20T14:27:01.796Z,21.69
2019-05-20T14:28:12.046Z,21.73
2019-05-20T14:29:22.192Z,21.73
2019-05-20T14:30:32.363Z,21.71
2019-05-20T14:31:42.306Z,21.84
2019-05-20T14:32:52.455Z,21.84
2019-05-20T14:34:02.397Z,21.87
2019-05-20T14:35:12.544Z,21.87
2019-05-20T14:36:43.067Z,21.91
2019-05-20T14:37:58.262Z,21.91
2019-05-20T14:39:08.495Z,21.87
2019-05-20T14:40:18.681Z,21.86
2019-05-20T14:41:28.838Z,21.72
2019-05-20T14:42:39.043Z,21.78
2019-05-20T14:43:49.213Z,21.71
2019-05-20T14:44:59.408Z,21.57
2019-05-20T14:46:09.341Z,21.58
2019-05-20T14:47:19.124Z,21.54
2019-05-20T14:48:29.306Z,21.56
2019-05-20T14:49:39.446Z,21.57
2019-05-20T14:50:49.617Z,21.46
2019-05-20T14:51:59.771Z,21.48
2019-05-20T14:53:09.976Z,21.4
2019-05-20T14:54:20.121Z,21.38
2019-05-20T14:55:41.074Z,21.34
2019-05-20T14:56:51.942Z,21.3
2019-05-20T14:58:02.104Z,21.27
2019-05-20T14:59:12.255Z,21.18
2019-05-20T15:00:22.437Z,21.19
2019-05-20T15:01:32.617Z,21.15
2019-05-20T15:02:42.774Z,21.22
2019-05-20T15:03:52.931Z,21.12
2019-05-20T15:05:03.073Z,21.12
2019-05-20T15:06:13.228Z,21.12
2019-05-20T15:07:34.545Z,21.12
2019-05-20T15:08:44.686Z,21.06
2019-05-20T15:09:54.831Z,21.06
2019-05-20T15:11:05.002Z,21
2019-05-20T15:12:15.146Z,20.96
2019-05-20T15:13:25.345Z,20.96
2019-05-20T15:14:35.499Z,20.91
2019-05-20T15:15:50.943Z,20.94
2019-05-20T15:17:01.104Z,20.81
2019-05-20T15:18:11.440Z,20.9
2019-05-20T15:19:21.635Z,20.75
2019-05-20T15:20:31.777Z,20.78
2019-05-20T15:21:41.934Z,20.75
2019-05-20T15:22:52.091Z,20.78
2019-05-20T15:24:02.268Z,20.81